Time;durP1;ratioP1;P1;durP2;ratioP2;P2;SDS_P1;SDS_P2;PMS_P1;PMS_P2;Temp;Humidity;BMP_temperature;BMP_pressure;BME280_temperature;BME280_humidity;BME280_pressure;Samples;Min_cycle;Max_cycle;Signal;HPM_P1;HPM_P2
2022/06/25 00:01:23;;;;;;;18.55;16.90;;;19.70;76.00;;;;;;4989796;28;20498;-77
2022/06/25 00:03:50;;;;;;;18.63;16.85;;;19.70;75.90;;;;;;4973151;28;20487;-76
2022/06/25 00:06:16;;;;;;;18.38;17.02;;;19.70;75.80;;;;;;4982247;28;20052;-76
2022/06/25 00:08:44;;;;;;;18.67;17.30;;;19.70;75.80;;;;;;5007777;28;20034;-76
2022/06/25 00:12:31;;;;;;;17.80;16.45;;;19.70;75.60;;;;;;5010901;28;20045;-76
2022/06/25 00:13:57;;;;;;;19.05;17.55;;;19.70;75.50;;;;;;5009519;28;20049;-76
2022/06/25 00:16:23;;;;;;;18.20;16.30;;;19.80;75.50;;;;;;5008514;28;20049;-76
2022/06/25 00:18:49;;;;;;;17.67;16.40;;;19.70;75.50;;;;;;4990355;28;20391;-76
2022/06/25 00:21:15;;;;;;;19.08;17.05;;;19.70;75.50;;;;;;5009158;28;20029;-76
2022/06/25 00:23:41;;;;;;;19.20;17.88;;;19.70;75.40;;;;;;5009338;28;20130;-76
2022/06/25 00:26:08;;;;;;;20.42;18.50;;;19.70;75.40;;;;;;5009769;28;20038;-76
2022/06/25 00:28:34;;;;;;;19.10;17.55;;;19.70;75.30;;;;;;4989910;28;20026;-76
2022/06/25 00:31:00;;;;;;;18.17;16.67;;;19.70;75.50;;;;;;5008598;28;20057;-76
2022/06/25 00:33:26;;;;;;;19.20;17.83;;;19.70;75.60;;;;;;5007527;28;20030;-76
2022/06/25 00:35:52;;;;;;;19.60;18.00;;;19.50;76.30;;;;;;4993131;28;20435;-76
2022/06/25 00:38:18;;;;;;;19.10;17.60;;;19.50;76.30;;;;;;5012922;28;20037;-76
2022/06/25 00:40:45;;;;;;;17.75;16.55;;;19.60;76.40;;;;;;5013704;28;20386;-76
2022/06/25 00:43:11;;;;;;;18.75;17.00;;;19.60;76.40;;;;;;4994069;28;20041;-76
2022/06/25 00:45:37;;;;;;;18.33;16.83;;;19.60;76.30;;;;;;5012473;28;20061;-76
2022/06/25 00:48:03;;;;;;;18.83;17.25;;;19.60;76.10;;;;;;5013154;28;20026;-76
2022/06/25 00:50:29;;;;;;;18.58;17.08;;;19.60;76.10;;;;;;5011725;28;20026;-76
2022/06/25 00:52:56;;;;;;;19.60;17.92;;;19.60;76.20;;;;;;5012055;28;20487;-76
2022/06/25 00:55:25;;;;;;;18.65;16.92;;;19.60;77.10;;;;;;4993434;28;20057;-76
2022/06/25 00:57:51;;;;;;;19.30;17.63;;;19.50;76.30;;;;;;4993529;28;20045;-76
2022/06/25 01:00:20;;;;;;;18.00;16.42;;;19.50;76.40;;;;;;5011700;28;20032;-76
2022/06/25 01:02:46;;;;;;;18.55;16.83;;;19.50;77.20;;;;;;5012805;28;20037;-76
2022/06/25 01:05:13;;;;;;;18.92;16.90;;;19.50;76.50;;;;;;5012959;28;20049;-76
2022/06/25 01:07:39;;;;;;;18.17;16.77;;;19.50;76.30;;;;;;5011700;28;20033;-76
2022/06/25 01:10:06;;;;;;;18.10;16.60;;;19.50;76.20;;;;;;5012261;28;20033;-76
2022/06/25 01:12:33;;;;;;;17.65;16.25;;;19.50;76.00;;;;;;4993328;28;20045;-76
2022/06/25 01:15:01;;;;;;;21.13;17.13;;;19.50;76.00;;;;;;5012516;28;20049;-76
2022/06/25 01:17:29;;;;;;;17.92;16.48;;;19.40;76.00;;;;;;5012049;28;20406;-77
2022/06/25 01:19:55;;;;;;;18.08;16.77;;;19.50;75.90;;;;;;5012955;28;20061;-76
2022/06/25 01:22:21;;;;;;;18.98;17.20;;;19.40;75.80;;;;;;4979588;28;20041;-76
2022/06/25 01:24:47;;;;;;;17.92;16.40;;;19.50;75.90;;;;;;5010879;28;20034;-76
2022/06/25 01:27:14;;;;;;;18.58;16.60;;;19.40;75.90;;;;;;4992333;28;20049;-79
2022/06/25 01:29:40;;;;;;;18.60;16.20;;;19.40;75.90;;;;;;4993486;28;20410;-76
2022/06/25 01:32:07;;;;;;;17.38;15.70;;;19.40;76.10;;;;;;5013836;28;20051;-76
2022/06/25 01:34:33;;;;;;;17.83;16.15;;;19.30;76.10;;;;;;5012122;28;20375;-76
2022/06/25 01:36:59;;;;;;;18.67;16.55;;;19.40;76.10;;;;;;5012003;28;20033;-77
2022/06/25 01:39:25;;;;;;;18.85;17.20;;;19.40;76.00;;;;;;4992534;28;20378;-76
2022/06/25 01:41:51;;;;;;;17.02;15.52;;;19.30;76.00;;;;;;4979055;28;20041;-76
2022/06/25 01:44:17;;;;;;;19.40;17.35;;;19.30;76.00;;;;;;5013185;28;20501;-76
2022/06/25 01:46:43;;;;;;;18.90;16.95;;;19.30;76.10;;;;;;5011606;28;20046;-76
2022/06/25 01:49:09;;;;;;;19.00;17.20;;;19.30;76.00;;;;;;4992698;28;20394;-76
2022/06/25 01:51:35;;;;;;;18.80;16.73;;;19.30;75.90;;;;;;5010223;28;20030;-76
2022/06/25 01:54:01;;;;;;;20.50;16.33;;;19.30;76.00;;;;;;4992495;28;20025;-76
2022/06/25 01:56:27;;;;;;;18.75;16.65;;;19.30;76.00;;;;;;5011322;28;20029;-76
2022/06/25 01:58:53;;;;;;;19.80;16.33;;;19.20;76.40;;;;;;5013531;28;20042;-76
2022/06/25 02:01:19;;;;;;;18.25;16.60;;;19.20;76.30;;;;;;5011187;28;20549;-76
2022/06/25 02:03:46;;;;;;;17.58;16.17;;;19.20;76.50;;;;;;5011605;28;20029;-76
2022/06/25 02:06:12;;;;;;;17.50;15.90;;;19.20;76.50;;;;;;5009975;28;20037;-76
2022/06/25 02:08:38;;;;;;;18.02;16.52;;;19.20;76.50;;;;;;5009951;28;20026;-76
2022/06/25 02:11:06;;;;;;;18.95;15.85;;;19.20;76.50;;;;;;4995523;28;20029;-76
2022/06/25 02:13:33;;;;;;;18.17;16.63;;;19.20;76.40;;;;;;5010500;28;20118;-76
2022/06/25 02:15:59;;;;;;;20.85;16.52;;;19.30;76.30;;;;;;5010730;28;20375;-76
2022/06/25 02:18:25;;;;;;;17.50;15.85;;;19.20;76.30;;;;;;5011317;28;20402;-76
2022/06/25 02:20:51;;;;;;;16.95;15.60;;;19.20;76.50;;;;;;4992221;28;20026;-76
2022/06/25 02:23:18;;;;;;;17.60;16.00;;;19.20;76.30;;;;;;5010741;28;20033;-76
2022/06/25 02:25:44;;;;;;;17.77;15.98;;;19.20;76.30;;;;;;4994605;28;20046;-76
2022/06/25 02:28:10;;;;;;;18.92;15.80;;;19.20;76.30;;;;;;5011119;28;20036;-76
2022/06/25 02:30:36;;;;;;;17.52;16.00;;;19.20;76.50;;;;;;4991504;28;20040;-76
2022/06/25 02:33:03;;;;;;;19.15;15.95;;;19.20;76.40;;;;;;4994185;28;20494;-76
2022/06/25 02:35:29;;;;;;;17.50;15.88;;;19.20;77.10;;;;;;5010217;28;20033;-76
2022/06/25 02:37:55;;;;;;;17.67;16.00;;;19.20;76.50;;;;;;5011125;28;20044;-76
2022/06/25 02:40:21;;;;;;;18.85;16.52;;;19.20;76.30;;;;;;4991570;28;20037;-76
2022/06/25 02:42:47;;;;;;;17.55;15.50;;;19.20;76.30;;;;;;4992004;28;20390;-76
2022/06/25 02:45:13;;;;;;;18.20;16.42;;;19.20;76.40;;;;;;4977647;28;20049;-76
2022/06/25 02:47:39;;;;;;;18.15;16.60;;;19.20;76.20;;;;;;4992431;28;20041;-76
2022/06/25 02:50:07;;;;;;;17.90;16.30;;;19.20;76.10;;;;;;5013249;28;20382;-76
2022/06/25 02:52:34;;;;;;;20.77;16.65;;;19.20;76.30;;;;;;4991788;28;20045;-76
2022/06/25 02:55:00;;;;;;;17.80;15.98;;;19.10;76.30;;;;;;5010776;28;20033;-76
2022/06/25 03:00:11;;;;;;;18.20;16.00;;;19.10;76.40;;;;;;4994755;28;20033;-76
2022/06/25 03:02:37;;;;;;;24.33;16.85;;;19.10;76.30;;;;;;5009178;28;20046;-76
2022/06/25 03:05:03;;;;;;;18.60;16.58;;;19.10;76.40;;;;;;5011369;28;20444;-76
2022/06/25 03:07:29;;;;;;;24.08;16.17;;;19.00;76.60;;;;;;5010079;28;20042;-76
2022/06/25 03:09:55;;;;;;;18.30;16.38;;;19.10;76.70;;;;;;4991052;28;20033;-76
2022/06/25 03:12:21;;;;;;;18.20;16.58;;;19.00;76.70;;;;;;4990875;28;20049;-76
2022/06/25 03:14:48;;;;;;;18.13;16.48;;;19.10;76.70;;;;;;5010360;28;20034;-76
2022/06/25 03:17:14;;;;;;;17.80;15.85;;;19.00;76.60;;;;;;5009745;28;20049;-76
2022/06/25 03:19:40;;;;;;;22.70;16.80;;;19.00;76.70;;;;;;5010736;28;20505;-76
2022/06/25 03:22:06;;;;;;;18.08;16.25;;;19.00;76.60;;;;;;5009707;28;20038;-76
2022/06/25 03:24:32;;;;;;;19.17;17.05;;;19.00;77.00;;;;;;4991011;28;20502;-76
2022/06/25 03:26:58;;;;;;;19.90;16.85;;;19.00;77.20;;;;;;4990736;28;20046;-76
2022/06/25 03:29:24;;;;;;;19.15;16.05;;;19.00;77.10;;;;;;5010339;28;20029;-76
2022/06/25 03:31:50;;;;;;;17.17;15.45;;;18.90;77.30;;;;;;4993815;28;20059;-76
2022/06/25 03:34:16;;;;;;;19.63;15.60;;;18.90;77.30;;;;;;5009854;28;20034;-76
2022/06/25 03:36:42;;;;;;;17.13;15.77;;;18.90;77.00;;;;;;5009597;28;20029;-76
2022/06/25 03:39:08;;;;;;;17.10;15.82;;;18.90;77.10;;;;;;4977109;28;20041;-76
2022/06/25 03:41:37;;;;;;;16.80;15.10;;;18.90;77.10;;;;;;5008616;28;20865;-76
2022/06/25 03:44:04;;;;;;;17.77;15.90;;;18.90;77.30;;;;;;4994595;28;20394;-76
2022/06/25 03:46:30;;;;;;;19.88;16.02;;;18.90;77.20;;;;;;4988950;28;20046;-77
2022/06/25 03:48:56;;;;;;;18.17;15.93;;;19.00;77.10;;;;;;4990576;28;20026;-76
2022/06/25 03:51:23;;;;;;;22.00;15.98;;;18.90;77.10;;;;;;4989858;28;20459;-76
2022/06/25 03:53:49;;;;;;;20.83;16.85;;;19.00;77.10;;;;;;4974102;28;20518;-76
2022/06/25 03:56:15;;;;;;;17.98;16.10;;;19.00;76.80;;;;;;5011230;28;20041;-76
2022/06/25 03:58:41;;;;;;;18.40;16.10;;;18.90;77.10;;;;;;4989299;28;20467;-76
2022/06/25 04:01:07;;;;;;;18.20;16.60;;;19.00;76.90;;;;;;5003968;28;20041;-76
2022/06/25 04:03:33;;;;;;;18.52;16.52;;;19.00;76.80;;;;;;4990029;28;20045;-76
2022/06/25 04:05:59;;;;;;;17.02;15.35;;;18.90;76.80;;;;;;4990436;28;20042;-76
2022/06/25 04:08:26;;;;;;;17.80;16.17;;;18.90;77.10;;;;;;5009708;28;20034;-77
2022/06/25 04:10:52;;;;;;;16.95;15.18;;;18.90;76.90;;;;;;4973506;28;20046;-76
2022/06/25 04:13:18;;;;;;;17.08;15.57;;;18.90;77.10;;;;;;5006742;28;20054;-76
2022/06/25 04:15:44;;;;;;;17.27;15.30;;;19.00;77.20;;;;;;5008755;28;20037;-76
2022/06/25 04:18:10;;;;;;;20.92;15.50;;;19.00;77.30;;;;;;4989858;28;20056;-77
2022/06/25 04:20:36;;;;;;;17.05;15.30;;;19.00;77.00;;;;;;4991717;28;20034;-77
2022/06/25 04:23:02;;;;;;;17.35;15.52;;;19.00;77.10;;;;;;5011372;28;20352;-76
2022/06/25 04:25:28;;;;;;;21.52;15.82;;;19.00;77.00;;;;;;5009254;28;20040;-76
2022/06/25 04:30:39;;;;;;;17.67;15.90;;;19.00;77.20;;;;;;4994777;28;20053;-77
2022/06/25 04:33:05;;;;;;;19.48;16.08;;;18.90;77.30;;;;;;4989727;28;20368;-76
2022/06/25 04:35:31;;;;;;;18.80;14.73;;;18.80;77.60;;;;;;5009282;28;20037;-76
2022/06/25 04:37:57;;;;;;;16.70;14.95;;;18.70;78.20;;;;;;5010994;28;20026;-77
2022/06/25 04:40:23;;;;;;;19.33;15.20;;;18.80;78.10;;;;;;4989911;28;20041;-77
2022/06/25 04:42:49;;;;;;;17.90;13.98;;;18.80;77.90;;;;;;4990118;28;20045;-77
2022/06/25 04:45:15;;;;;;;20.00;14.80;;;18.80;78.30;;;;;;5006822;28;20491;-76
2022/06/25 04:47:41;;;;;;;21.63;14.32;;;18.90;78.00;;;;;;5008769;28;20042;-76
2022/06/25 04:50:08;;;;;;;16.25;14.55;;;18.90;78.10;;;;;;5009958;28;20049;-76
2022/06/25 04:52:34;;;;;;;16.38;14.95;;;18.90;78.10;;;;;;5008788;28;20506;-76
2022/06/25 04:55:00;;;;;;;15.85;14.32;;;19.00;77.70;;;;;;4989745;28;20041;-76
2022/06/25 04:57:26;;;;;;;17.02;15.15;;;18.90;78.20;;;;;;5009041;28;20394;-77
2022/06/25 04:59:52;;;;;;;18.52;14.77;;;18.90;78.00;;;;;;5008741;28;20037;-76
2022/06/25 05:02:18;;;;;;;17.58;14.02;;;18.90;78.30;;;;;;5009194;28;20434;-77
2022/06/25 05:04:44;;;;;;;16.63;14.77;;;18.80;78.80;;;;;;5008625;28;20030;-76
2022/06/25 05:07:10;;;;;;;22.45;14.55;;;18.70;79.20;;;;;;5007089;28;20038;-76
2022/06/25 05:09:36;;;;;;;19.88;14.00;;;18.70;79.00;;;;;;4990870;28;20026;-77
2022/06/25 05:12:03;;;;;;;16.60;13.82;;;18.80;78.70;;;;;;5008919;28;20034;-77
2022/06/25 05:14:29;;;;;;;16.52;13.75;;;18.80;78.80;;;;;;5008488;28;20499;-76
2022/06/25 05:16:55;;;;;;;16.02;14.15;;;18.80;78.70;;;;;;4988945;28;20057;-76
2022/06/25 05:19:21;;;;;;;17.65;14.43;;;18.90;78.70;;;;;;5006831;28;20037;-76
2022/06/25 05:21:47;;;;;;;15.77;14.15;;;18.90;78.30;;;;;;4977163;28;20037;-76
2022/06/25 05:24:13;;;;;;;15.73;14.23;;;18.80;78.50;;;;;;5012592;28;20374;-76
2022/06/25 05:26:39;;;;;;;15.55;14.00;;;18.90;78.50;;;;;;5012367;28;20049;-75
2022/06/25 05:29:06;;;;;;;15.95;14.25;;;18.90;78.20;;;;;;5012972;28;20033;-77
2022/06/25 05:31:32;;;;;;;16.33;14.38;;;19.00;78.40;;;;;;4993431;28;20494;-76
2022/06/25 05:33:58;;;;;;;19.25;14.75;;;18.90;78.50;;;;;;5012157;28;20045;-77
2022/06/25 05:36:24;;;;;;;15.32;13.77;;;18.90;78.40;;;;;;5012126;28;20030;-76
2022/06/25 05:38:50;;;;;;;15.38;13.75;;;18.80;78.70;;;;;;4979601;28;20041;-76
2022/06/25 05:41:16;;;;;;;15.77;14.05;;;18.80;79.20;;;;;;5012206;28;20029;-76
2022/06/25 05:43:42;;;;;;;15.93;14.23;;;18.80;78.90;;;;;;5011640;28;20034;-76
2022/06/25 05:46:08;;;;;;;19.73;14.23;;;18.90;78.70;;;;;;5009413;28;20384;-77
2022/06/25 05:48:35;;;;;;;16.20;14.40;;;18.90;78.70;;;;;;5011868;28;20029;-76
2022/06/25 05:51:01;;;;;;;21.55;14.45;;;18.80;78.70;;;;;;5011950;28;20383;-76
2022/06/25 05:53:27;;;;;;;15.43;13.90;;;18.80;79.40;;;;;;5010750;28;20489;-76
2022/06/25 05:55:53;;;;;;;15.68;14.10;;;18.70;79.50;;;;;;4996301;28;20034;-77
2022/06/25 05:58:22;;;;;;;17.77;15.70;;;18.60;80.10;;;;;;5011743;28;20065;-76
2022/06/25 06:00:48;;;;;;;18.65;16.52;;;18.30;81.00;;;;;;5009108;28;20042;-76
2022/06/25 06:03:14;;;;;;;20.63;18.48;;;18.30;81.60;;;;;;4992670;28;20029;-76
2022/06/25 06:05:41;;;;;;;21.65;20.02;;;18.40;81.70;;;;;;5011651;28;20510;-76
2022/06/25 06:08:07;;;;;;;19.67;17.70;;;18.40;81.50;;;;;;5012285;28;20042;-76
2022/06/25 06:10:34;;;;;;;19.75;18.00;;;18.40;81.30;;;;;;5010029;28;20061;-76
2022/06/25 06:13:00;;;;;;;20.42;18.15;;;18.40;81.10;;;;;;4975423;28;20053;-76
2022/06/25 06:15:26;;;;;;;19.95;17.10;;;18.40;81.10;;;;;;4991297;28;20038;-76
2022/06/25 06:17:52;;;;;;;18.48;16.83;;;18.40;81.50;;;;;;4978888;28;20041;-76
2022/06/25 06:20:18;;;;;;;18.33;16.45;;;18.40;81.60;;;;;;4994423;28;20044;-76
2022/06/25 06:22:44;;;;;;;19.15;16.38;;;18.30;81.70;;;;;;5011070;28;20030;-77
2022/06/25 06:25:10;;;;;;;18.23;16.63;;;18.20;82.00;;;;;;4991253;28;20026;-76
2022/06/25 06:27:36;;;;;;;17.52;15.75;;;18.20;81.70;;;;;;5011364;28;20049;-76
2022/06/25 06:30:10;;;;;;;20.80;16.60;;;18.20;82.30;;;;;;5010331;28;20026;-75
2022/06/25 06:32:36;;;;;;;18.70;16.70;;;18.20;82.20;;;;;;4992413;28;20022;-76
2022/06/25 06:35:02;;;;;;;18.45;16.63;;;18.30;81.60;;;;;;4995608;28;20026;-76
2022/06/25 06:37:29;;;;;;;17.55;15.75;;;18.20;81.80;;;;;;5010805;28;20399;-76
2022/06/25 06:39:55;;;;;;;19.70;16.30;;;18.20;81.70;;;;;;4991857;28;20049;-76
2022/06/25 06:42:21;;;;;;;19.52;17.00;;;18.20;82.00;;;;;;5009251;28;20394;-76
2022/06/25 06:44:47;;;;;;;19.10;17.25;;;18.20;81.80;;;;;;4991700;28;20049;-76
2022/06/25 06:47:13;;;;;;;19.45;17.58;;;18.30;81.30;;;;;;5011664;28;20042;-76
2022/06/25 06:49:39;;;;;;;17.90;16.42;;;18.30;81.10;;;;;;4976103;28;20372;-76
2022/06/25 06:52:05;;;;;;;17.15;15.68;;;18.30;81.10;;;;;;5010615;28;20394;-76
2022/06/25 06:54:31;;;;;;;17.42;16.00;;;18.30;81.20;;;;;;5009930;28;20489;-77
2022/06/25 06:56:58;;;;;;;18.35;16.40;;;18.30;81.10;;;;;;4993734;28;20053;-78
2022/06/25 06:59:24;;;;;;;19.77;16.35;;;18.40;81.00;;;;;;4993020;28;20045;-76
2022/06/25 07:01:50;;;;;;;15.65;14.15;;;18.30;80.60;;;;;;4994148;28;20041;-76
2022/06/25 07:04:16;;;;;;;15.80;14.40;;;18.40;80.50;;;;;;4991296;28;20033;-77
2022/06/25 07:06:42;;;;;;;18.08;16.58;;;18.30;80.80;;;;;;4991147;28;20038;-76
2022/06/25 07:09:08;;;;;;;18.25;15.85;;;18.30;81.00;;;;;;5010522;28;20383;-76
2022/06/25 07:11:34;;;;;;;17.20;15.35;;;18.30;80.60;;;;;;5010416;28;20044;-77
2022/06/25 07:14:02;;;;;;;22.23;14.15;;;18.50;80.00;;;;;;5011728;28;20042;-76
2022/06/25 07:16:28;;;;;;;15.35;13.90;;;18.40;79.50;;;;;;4990519;28;20037;-76
2022/06/25 07:18:55;;;;;;;16.42;14.75;;;18.50;79.60;;;;;;4991081;28;20462;-76
2022/06/25 07:21:21;;;;;;;17.00;15.75;;;18.50;79.70;;;;;;5010044;28;20033;-76
2022/06/25 07:23:47;;;;;;;15.40;13.75;;;18.30;79.30;;;;;;4991129;28;20145;-77
2022/06/25 07:26:13;;;;;;;14.80;13.63;;;18.30;80.10;;;;;;5010150;28;20030;-76
2022/06/25 07:28:39;;;;;;;17.75;16.27;;;18.30;80.10;;;;;;5009115;28;20042;-76
2022/06/25 07:31:06;;;;;;;16.63;15.25;;;18.30;79.90;;;;;;4973051;28;20049;-76
2022/06/25 07:33:32;;;;;;;15.55;13.95;;;18.40;79.30;;;;;;4985146;28;20388;-77
2022/06/25 07:35:58;;;;;;;13.10;11.75;;;18.50;79.20;;;;;;4990907;28;20037;-77
2022/06/25 07:38:24;;;;;;;14.55;12.30;;;18.50;77.70;;;;;;5010148;28;20037;-76
2022/06/25 07:40:50;;;;;;;12.50;11.40;;;18.50;78.40;;;;;;5011510;28;20033;-77
2022/06/25 07:43:17;;;;;;;14.15;12.57;;;18.40;78.30;;;;;;4990429;28;20368;-76
2022/06/25 07:45:43;;;;;;;13.13;11.82;;;18.40;78.30;;;;;;4989569;28;20064;-76
2022/06/25 07:48:09;;;;;;;16.85;15.35;;;18.40;78.20;;;;;;4990573;28;20040;-77
2022/06/25 07:53:20;;;;;;;16.63;15.13;;;18.50;78.30;;;;;;5008712;28;20036;-76
2022/06/25 07:55:46;;;;;;;17.58;14.63;;;18.50;78.20;;;;;;5010388;28;20025;-76
2022/06/25 07:58:12;;;;;;;16.65;15.07;;;18.50;78.10;;;;;;5007042;28;20053;-76
2022/06/25 08:00:39;;;;;;;16.00;14.63;;;18.60;78.30;;;;;;4990132;28;20402;-76
2022/06/25 08:03:05;;;;;;;15.57;14.10;;;18.50;78.70;;;;;;5008842;28;20060;-76
2022/06/25 08:05:33;;;;;;;16.38;14.82;;;18.50;79.20;;;;;;5008337;28;20045;-76
2022/06/25 08:08:00;;;;;;;16.80;15.07;;;18.40;79.10;;;;;;5011278;28;20045;-77
2022/06/25 08:10:26;;;;;;;16.10;14.55;;;18.30;79.40;;;;;;4989852;28;20073;-76
2022/06/25 08:12:52;;;;;;;16.63;14.95;;;18.30;79.50;;;;;;4990296;28;20499;-79
2022/06/25 08:15:20;;;;;;;14.85;13.50;;;18.50;79.70;;;;;;4989885;28;20026;-76
2022/06/25 08:17:46;;;;;;;18.08;16.30;;;18.50;79.20;;;;;;5009253;28;20030;-76
2022/06/25 08:20:12;;;;;;;17.10;15.68;;;18.50;79.30;;;;;;5009732;28;20033;-75
2022/06/25 08:22:38;;;;;;;15.98;14.50;;;18.40;79.90;;;;;;4990935;28;20033;-76
2022/06/25 08:25:07;;;;;;;16.05;14.60;;;18.40;80.00;;;;;;4990011;28;20041;-78
2022/06/25 08:27:34;;;;;;;17.48;14.98;;;18.50;80.40;;;;;;4989616;28;20133;-76
2022/06/25 08:30:00;;;;;;;15.98;14.77;;;18.50;80.10;;;;;;5009174;28;20029;-76
2022/06/25 08:32:26;;;;;;;16.20;14.65;;;18.40;80.00;;;;;;5007628;28;20037;-78
2022/06/25 08:34:52;;;;;;;15.15;13.98;;;18.10;80.40;;;;;;5009269;28;20371;-76
2022/06/25 08:37:19;;;;;;;15.20;12.80;;;18.00;80.90;;;;;;4973716;28;20056;-78
2022/06/25 08:39:45;;;;;;;15.15;13.40;;;17.80;81.50;;;;;;4988929;28;20410;-77
2022/06/25 08:42:11;;;;;;;16.15;14.70;;;17.70;82.80;;;;;;4997646;28;20041;-78
2022/06/25 08:44:37;;;;;;;15.82;14.48;;;17.60;83.10;;;;;;5009210;28;20387;-78
2022/06/25 08:47:03;;;;;;;15.43;13.93;;;17.70;83.60;;;;;;5010394;28;20037;-78
2022/06/25 08:49:29;;;;;;;15.65;14.50;;;18.00;83.40;;;;;;5009057;28;20052;-76
2022/06/25 08:51:57;;;;;;;15.63;14.13;;;18.20;82.20;;;;;;4989700;28;20049;-77
2022/06/25 08:54:24;;;;;;;15.85;14.35;;;18.40;81.60;;;;;;4989689;28;20380;-79
2022/06/25 08:56:50;;;;;;;15.68;14.38;;;18.50;81.20;;;;;;4992995;28;20026;-76
2022/06/25 08:59:16;;;;;;;16.45;14.98;;;18.40;81.80;;;;;;5012560;28;20033;-78
2022/06/25 09:01:43;;;;;;;15.68;14.07;;;18.30;81.90;;;;;;5012952;28;20034;-78
2022/06/25 09:04:09;;;;;;;14.93;13.63;;;18.20;81.80;;;;;;4993580;28;20026;-78
2022/06/25 09:06:35;;;;;;;15.52;14.18;;;18.20;82.30;;;;;;5012571;28;20405;-78
2022/06/25 09:09:11;;;;;;;15.20;13.90;;;18.30;82.80;;;;;;5012283;28;20038;-77
2022/06/25 09:11:54;;;;;;;15.50;14.23;;;18.50;82.80;;;;;;4995144;28;20440;-78
2022/06/25 09:14:25;;;;;;;14.25;13.07;;;18.70;82.30;;;;;;4993320;28;20052;-78
2022/06/25 09:16:54;;;;;;;;;;;18.70;80.40;;;;;;5011271;28;20035;-78
2022/06/25 09:19:30;;;;;;;13.77;12.00;;;18.70;81.20;;;;;;4999811;28;19921;-79
2022/06/25 09:21:57;;;;;;;13.02;11.95;;;18.80;80.50;;;;;;5006364;28;20053;-78
2022/06/25 09:24:38;;;;;;;16.90;15.70;;;18.80;80.50;;;;;;5012118;28;20029;-78
2022/06/25 09:27:04;;;;;;;13.32;12.20;;;18.80;79.40;;;;;;4992072;28;20030;-78
2022/06/25 09:29:40;;;;;;;17.88;16.27;;;18.80;80.00;;;;;;4993939;28;20029;-78
2022/06/25 09:32:07;;;;;;;15.35;14.45;;;18.90;79.40;;;;;;5012776;28;20057;-78
2022/06/25 09:34:34;;;;;;;14.18;13.23;;;19.10;77.90;;;;;;4976270;28;20475;-78
2022/06/25 09:37:22;;;;;;;17.80;16.60;;;19.10;78.30;;;;;;4987755;28;20465;-78
2022/06/25 09:39:49;;;;;;;16.17;14.95;;;19.10;76.00;;;;;;5004998;28;20037;-78
2022/06/25 09:42:32;;;;;;;22.90;21.50;;;19.10;76.90;;;;;;4993193;28;20111;-78
2022/06/25 09:45:12;;;;;;;19.88;18.58;;;19.10;74.40;;;;;;4993132;28;20030;-78
2022/06/25 09:47:43;;;;;;;19.42;18.10;;;19.10;74.60;;;;;;4993906;28;20062;-78
2022/06/25 09:50:11;;;;;;;;;;;19.20;74.40;;;;;;5009370;28;20029;-78
2022/06/25 09:52:49;;;;;;;19.73;18.23;;;19.10;72.50;;;;;;4995479;28;19909;-78
2022/06/25 09:55:15;;;;;;;15.23;14.23;;;19.00;73.00;;;;;;4992730;28;20029;-78
2022/06/25 09:57:41;;;;;;;17.15;15.85;;;18.90;73.00;;;;;;4992742;28;20029;-78
2022/06/25 10:00:10;;;;;;;15.63;14.35;;;18.90;73.50;;;;;;4992780;28;20029;-77
2022/06/25 10:02:36;;;;;;;18.27;17.05;;;18.90;73.70;;;;;;5010981;28;20474;-78
2022/06/25 10:05:03;;;;;;;17.77;16.67;;;18.80;72.70;;;;;;5012523;28;20102;-78
2022/06/25 10:10:19;;;;;;;18.50;17.35;;;18.60;73.40;;;;;;4990509;28;20037;-78
2022/06/25 10:12:47;;;;;;;16.45;15.32;;;18.80;74.60;;;;;;4983077;28;20042;-78
2022/06/25 10:15:15;;;;;;;17.00;15.85;;;18.60;75.60;;;;;;5011049;28;20030;-78
2022/06/25 10:17:42;;;;;;;16.48;15.38;;;18.50;75.40;;;;;;4993198;28;20026;-79
2022/06/25 10:20:08;;;;;;;17.08;15.90;;;18.40;74.80;;;;;;4995636;28;20518;-78
2022/06/25 10:22:36;;;;;;;16.17;15.02;;;18.40;73.80;;;;;;4958812;28;20046;-79
2022/06/25 10:25:02;;;;;;;16.95;15.80;;;18.40;74.50;;;;;;5003870;28;20395;-78
2022/06/25 10:27:36;;;;;;;16.80;15.68;;;18.50;74.80;;;;;;4992070;28;20049;-78
2022/06/25 10:30:03;;;;;;;15.80;14.80;;;18.60;74.50;;;;;;4978782;28;20049;-76
2022/06/25 10:32:29;;;;;;;17.70;16.27;;;18.70;75.00;;;;;;4993820;28;20041;-78
2022/06/25 10:34:56;;;;;;;18.50;17.40;;;18.80;74.90;;;;;;5011483;28;20026;-77
2022/06/25 10:37:22;;;;;;;20.05;18.73;;;18.90;75.10;;;;;;4991596;28;20476;-77
2022/06/25 10:39:55;;;;;;;18.08;16.67;;;19.00;73.70;;;;;;4991825;28;20486;-77
2022/06/25 10:45:14;;;;;;;14.65;13.35;;;19.10;75.80;;;;;;4998154;28;20041;-78
2022/06/25 10:47:42;;;;;;;13.45;12.65;;;19.00;76.50;;;;;;5011353;28;20034;-78
2022/06/25 10:50:20;;;;;;;14.30;13.05;;;19.10;76.60;;;;;;4990763;28;20475;-78
2022/06/25 10:53:05;;;;;;;26.05;24.63;;;19.10;76.40;;;;;;5012606;28;20041;-78
2022/06/25 10:55:41;;;;;;;20.38;19.17;;;19.10;74.40;;;;;;4991395;28;20034;-78
2022/06/25 10:58:17;;;;;;;25.52;24.13;;;19.20;74.80;;;;;;4991743;28;20026;-78
2022/06/25 11:01:01;;;;;;;21.58;20.17;;;19.30;74.10;;;;;;4974541;28;20038;-78
2022/06/25 11:03:30;;;;;;;24.80;23.30;;;19.40;74.20;;;;;;5010682;28;20025;-78
2022/06/25 11:05:57;;;;;;;20.67;19.33;;;19.40;73.20;;;;;;5010225;28;20022;-78
2022/06/25 11:08:35;;;;;;;26.05;24.70;;;19.30;72.10;;;;;;5009570;28;20046;-78
2022/06/25 11:11:01;;;;;;;24.52;23.02;;;19.20;72.60;;;;;;5006959;28;20029;-78
2022/06/25 11:13:27;;;;;;;22.20;20.90;;;19.20;72.10;;;;;;5007768;28;20042;-78
2022/06/25 11:15:53;;;;;;;23.17;21.88;;;19.20;72.20;;;;;;5008016;28;20037;-78
2022/06/25 11:18:20;;;;;;;24.65;23.25;;;19.20;71.30;;;;;;5009961;28;20384;-78
2022/06/25 11:20:48;;;;;;;20.90;19.65;;;19.10;72.50;;;;;;4990065;28;20022;-78
2022/06/25 11:23:15;;;;;;;18.95;17.75;;;19.20;71.90;;;;;;5011401;28;20038;-78
2022/06/25 11:28:51;;;;;;;18.80;17.80;;;19.20;70.60;;;;;;5015994;28;20077;-78
2022/06/25 11:31:18;;;;;;;17.00;15.90;;;19.30;70.20;;;;;;4991752;28;20034;-78
2022/06/25 11:33:44;;;;;;;24.15;22.80;;;19.40;69.40;;;;;;4990570;28;20394;-78
2022/06/25 11:36:11;;;;;;;17.92;16.83;;;19.50;70.00;;;;;;4990921;28;20037;-78
2022/06/25 11:38:37;;;;;;;17.35;16.35;;;19.50;69.60;;;;;;5008656;28;20037;-78
2022/06/25 11:41:03;;;;;;;19.42;18.02;;;19.50;68.80;;;;;;5010590;28;20041;-78
2022/06/25 11:43:29;;;;;;;14.90;14.10;;;19.60;69.00;;;;;;5009854;28;20030;-78
2022/06/25 11:45:56;;;;;;;18.27;16.98;;;19.60;68.90;;;;;;5009210;28;20061;-78
2022/06/25 11:48:26;;;;;;;17.25;16.05;;;19.70;69.20;;;;;;4990191;28;20049;-78
2022/06/25 11:50:58;;;;;;;17.52;16.25;;;19.80;68.60;;;;;;4990720;28;20026;-78
2022/06/25 11:53:24;;;;;;;15.93;14.82;;;19.80;68.40;;;;;;5010363;28;20037;-78
2022/06/25 11:56:00;;;;;;;18.73;17.52;;;19.80;68.40;;;;;;5009090;28;20036;-79
2022/06/25 11:58:28;;;;;;;18.25;17.13;;;19.70;68.60;;;;;;5009685;28;20509;-78
2022/06/25 12:00:56;;;;;;;16.33;15.32;;;19.80;68.70;;;;;;4972785;28;20041;-78
2022/06/25 12:03:25;;;;;;;22.58;21.27;;;19.70;68.10;;;;;;4999215;28;20025;-78
2022/06/25 12:05:55;;;;;;;20.20;18.70;;;19.70;69.20;;;;;;4990309;28;20356;-78
2022/06/25 12:08:22;;;;;;;20.60;19.30;;;19.80;68.90;;;;;;5010094;28;20517;-78
2022/06/25 12:10:48;;;;;;;17.20;16.10;;;19.90;68.90;;;;;;4993174;28;20030;-78
2022/06/25 12:13:15;;;;;;;22.13;20.52;;;19.80;68.80;;;;;;5009346;28;20056;-78
2022/06/25 12:15:41;;;;;;;17.05;15.55;;;19.90;69.00;;;;;;5006728;28;20036;-78
2022/06/25 12:18:07;;;;;;;17.45;16.35;;;20.00;68.70;;;;;;4990154;28;20029;-78
2022/06/25 12:20:33;;;;;;;19.17;18.02;;;20.10;68.60;;;;;;5009298;28;20030;-78
2022/06/25 12:23:00;;;;;;;19.38;18.02;;;20.10;68.90;;;;;;4993534;28;20034;-78
2022/06/25 12:25:33;;;;;;;20.40;19.10;;;20.20;69.00;;;;;;4990408;28;20030;-78
2022/06/25 12:28:00;;;;;;;12.75;11.90;;;20.30;69.70;;;;;;4990043;28;20026;-79
2022/06/25 12:30:30;;;;;;;16.17;15.07;;;20.30;67.10;;;;;;4991143;28;20398;-78
2022/06/25 12:33:03;;;;;;;18.35;17.15;;;20.30;62.00;;;;;;4982466;28;20049;-77
2022/06/25 12:35:31;;;;;;;16.63;15.40;;;20.20;60.60;;;;;;5015863;28;20030;-77
2022/06/25 12:38:10;;;;;;;16.65;15.23;;;20.20;61.50;;;;;;5016805;28;20048;-76
2022/06/25 12:40:37;;;;;;;15.77;14.68;;;20.40;62.40;;;;;;5015545;28;20475;-77
2022/06/25 12:43:06;;;;;;;15.50;14.60;;;20.40;60.10;;;;;;4982467;28;20049;-77
2022/06/25 12:45:33;;;;;;;16.92;15.82;;;20.40;59.70;;;;;;4995434;28;20041;-76